createdAt,value
2023-05-11T00:02:48.962Z,95514.44
2023-05-11T00:07:51.354Z,95513.13
2023-05-11T00:12:53.664Z,95507.19
2023-05-11T00:17:56.029Z,95507.69
2023-05-11T00:22:58.410Z,95501.31
2023-05-11T00:28:00.748Z,95499.13
2023-05-11T00:33:03.118Z,95500.44
2023-05-11T00:38:05.589Z,95501.25
2023-05-11T00:43:07.880Z,95494.56
2023-05-11T00:48:10.207Z,95493.78
2023-05-11T00:53:13.223Z,95492.16
2023-05-11T00:58:16.219Z,95490.03
2023-05-11T01:03:18.592Z,95491.66
2023-05-11T01:08:21.300Z,95486.78
2023-05-11T01:13:23.628Z,95480.66
2023-05-11T01:18:26.288Z,95482.00
2023-05-11T01:23:28.595Z,95487.88
2023-05-11T01:28:31.354Z,95475.06
2023-05-11T01:33:33.682Z,95475.06
2023-05-11T01:38:36.018Z,95470.78
2023-05-11T01:43:38.343Z,95478.25
2023-05-11T01:48:40.897Z,95476.06
2023-05-11T01:53:43.197Z,95470.22
2023-05-11T01:58:45.468Z,95472.09
2023-05-11T02:03:47.802Z,95469.94
2023-05-11T02:08:50.107Z,95479.31
2023-05-11T02:13:52.456Z,95477.41
2023-05-11T02:18:54.869Z,95475.81
2023-05-11T02:23:57.720Z,95470.75
2023-05-11T02:29:00.032Z,95470.47
2023-05-11T02:34:02.381Z,95454.66
2023-05-11T02:39:04.682Z,95458.41
2023-05-11T02:44:06.973Z,95453.31
2023-05-11T02:49:09.328Z,95451.44
2023-05-11T02:54:11.760Z,95452.78
2023-05-11T02:59:14.230Z,95452.50
2023-05-11T03:04:16.630Z,95457.06
2023-05-11T03:09:18.910Z,95452.78
2023-05-11T03:14:21.447Z,95457.88
2023-05-11T03:19:23.829Z,95449.81
2023-05-11T03:24:26.162Z,95454.09
2023-05-11T03:29:28.930Z,95448.72
2023-05-11T03:34:31.216Z,95453.56
2023-05-11T03:39:33.542Z,95448.72
2023-05-11T03:44:35.950Z,95435.34
2023-05-11T03:49:38.450Z,95437.72
2023-05-11T03:54:40.732Z,95446.53
2023-05-11T03:59:43.002Z,95429.44
2023-05-11T04:04:45.569Z,95431.53
2023-05-11T04:09:48.221Z,95433.41
2023-05-11T04:14:50.486Z,95428.63
2023-05-11T04:19:52.798Z,95432.34
2023-05-11T04:24:55.064Z,95435.34
2023-05-11T04:29:57.331Z,95424.88
2023-05-11T04:34:59.629Z,95436.38
2023-05-11T04:40:02.413Z,95439.88
2023-05-11T04:45:04.745Z,95439.03
2023-05-11T04:50:07.088Z,95443.88
2023-05-11T04:55:09.719Z,95441.69
2023-05-11T05:00:12.336Z,95444.63
2023-05-11T05:05:14.677Z,95442.25
2023-05-11T05:10:17.260Z,95441.19
2023-05-11T05:15:19.774Z,95446.28
2023-05-11T05:20:22.053Z,95446.53
2023-05-11T05:25:24.345Z,95446.84
2023-05-11T05:30:26.618Z,95455.13
2023-05-11T05:35:28.971Z,95452.44
2023-05-11T05:40:31.395Z,95461.56
2023-05-11T05:45:33.796Z,95455.97
2023-05-11T05:50:36.360Z,95461.03
2023-05-11T05:55:38.953Z,95452.22
2023-05-11T06:00:41.215Z,95459.97
2023-05-11T06:05:43.515Z,95461.59
2023-05-11T06:10:46.522Z,95459.47
2023-05-11T06:15:49.073Z,95459.47
2023-05-11T06:20:51.573Z,95465.63
2023-05-11T06:25:56.299Z,95460.56
2023-05-11T06:30:59.267Z,95467.53
2023-05-11T06:36:02.938Z,95463.25
2023-05-11T06:41:07.484Z,95461.66
2023-05-11T06:46:10.128Z,95465.44
2023-05-11T06:51:12.627Z,95465.97
2023-05-11T06:56:14.927Z,95470.78
2023-05-11T07:01:17.388Z,95461.41
2023-05-11T07:06:19.756Z,95463.28
2023-05-11T07:11:22.662Z,95465.97
2023-05-11T07:16:25.266Z,95469.72
2023-05-11T07:21:27.759Z,95460.84
2023-05-11T07:26:30.091Z,95467.03
2023-05-11T07:31:33.467Z,95469.19
2023-05-11T07:36:35.874Z,95466.50
2023-05-11T07:41:38.198Z,95466.50
2023-05-11T07:46:40.800Z,95469.16
2023-05-11T07:51:43.397Z,95471.53
2023-05-11T07:56:46.213Z,95467.69
2023-05-11T08:01:48.613Z,95468.97
2023-05-11T08:06:51.350Z,95474.94
2023-05-11T08:11:56.323Z,95464.78
2023-05-11T08:16:58.636Z,95456.22
2023-05-11T08:22:01.286Z,95462.63
2023-05-11T08:27:03.726Z,95458.38
2023-05-11T08:32:06.165Z,95459.25
2023-05-11T08:37:08.525Z,95451.75
2023-05-11T08:42:10.879Z,95451.97
2023-05-11T08:52:18.681Z,95451.44
2023-05-11T08:57:21.275Z,95461.28
2023-05-11T09:02:23.820Z,95466.88
2023-05-11T09:07:26.302Z,95466.81
2023-05-11T09:12:28.840Z,95467.03
2023-05-11T09:17:31.456Z,95469.66
2023-05-11T09:22:36.069Z,95455.19
2023-05-11T09:27:41.054Z,95463.69
2023-05-11T09:32:44.124Z,95456.94
2023-05-11T09:37:46.989Z,95462.63
2023-05-11T09:42:49.709Z,95452.91
2023-05-11T09:47:52.863Z,95458.09
2023-05-11T09:52:55.366Z,95444.72
2023-05-11T09:57:58.285Z,95449.88
2023-05-11T10:03:00.997Z,95448.63
2023-05-11T10:08:04.139Z,95442.19
2023-05-11T10:13:06.654Z,95446.38
2023-05-11T10:18:09.422Z,95450.38
2023-05-11T10:23:12.059Z,95453.97
2023-05-11T10:28:14.752Z,95444.38
2023-05-11T10:33:17.346Z,95447.81
2023-05-11T10:38:22.499Z,95449.94
2023-05-11T10:43:25.362Z,95449.59
2023-05-11T10:48:28.009Z,95450.75
2023-05-11T10:53:30.562Z,95445.47
2023-05-11T10:58:33.093Z,95441.72
2023-05-11T11:03:36.054Z,95428.88
2023-05-11T11:08:38.598Z,95435.69
2023-05-11T11:13:41.285Z,95442.34
2023-05-11T11:18:43.983Z,95439.81
2023-05-11T11:23:49.241Z,95435.94
2023-05-11T11:28:52.095Z,95430.66
2023-05-11T11:33:56.166Z,95444.47
2023-05-11T11:38:58.952Z,95435.94
2023-05-11T11:44:01.394Z,95437.63
2023-05-11T11:49:03.689Z,95439.25
2023-05-11T11:54:06.776Z,95440.56
2023-05-11T11:59:13.697Z,95440.69
2023-05-11T12:04:17.116Z,95441.69
2023-05-11T12:09:19.622Z,95436.84
2023-05-11T12:14:22.080Z,95431.34
2023-05-11T12:19:24.694Z,95434.03
2023-05-11T12:24:27.468Z,95438.59
2023-05-11T12:29:29.789Z,95434.25
2023-05-11T12:34:32.222Z,95430.22
2023-05-11T12:39:36.047Z,95425.00
2023-05-11T12:44:38.502Z,95414.19
2023-05-11T12:49:40.970Z,95417.50
2023-05-11T12:54:43.527Z,95416.13
2023-05-11T12:59:45.864Z,95413.06
2023-05-11T13:04:48.147Z,95412.41
2023-05-11T13:09:50.473Z,95407.84
2023-05-11T13:14:52.831Z,95407.41
2023-05-11T13:19:55.183Z,95395.72
2023-05-11T13:24:57.677Z,95398.97
2023-05-11T13:30:00.264Z,95396.78
2023-05-11T13:35:02.583Z,95395.84
2023-05-11T13:40:04.981Z,95384.84
2023-05-11T13:45:08.043Z,95389.16
2023-05-11T13:50:10.442Z,95394.94
2023-05-11T13:55:12.771Z,95393.38
2023-05-11T14:00:15.049Z,95388.75
2023-05-11T14:05:17.593Z,95384.19
2023-05-11T14:10:20.163Z,95381.66
2023-05-11T14:15:22.765Z,95387.78
2023-05-11T14:20:25.134Z,95384.53
2023-05-11T14:25:27.814Z,95382.66
2023-05-11T14:30:30.175Z,95384.03
2023-05-11T14:35:32.962Z,95384.28
2023-05-11T14:40:35.535Z,95390.94
2023-05-11T14:45:38.424Z,95386.22
2023-05-11T14:50:42.998Z,95388.16
2023-05-11T14:55:45.502Z,95383.78
2023-05-11T15:00:48.188Z,95393.41
2023-05-11T15:05:50.987Z,95384.34
2023-05-11T15:10:53.687Z,95385.47
2023-05-11T15:15:56.260Z,95388.44
2023-05-11T15:20:58.986Z,95395.06
2023-05-11T15:26:01.474Z,95390.31
2023-05-11T15:31:03.831Z,95402.94
2023-05-11T15:36:06.672Z,95402.38
2023-05-11T15:41:09.061Z,95411.47
2023-05-11T15:46:11.748Z,95405.03
2023-05-11T15:51:14.534Z,95405.91
2023-05-11T15:56:17.396Z,95402.41
2023-05-11T16:01:20.057Z,95403.16
2023-05-11T16:06:22.781Z,95406.53
2023-05-11T16:11:25.307Z,95404.84
2023-05-11T16:16:27.826Z,95403.06
2023-05-11T16:21:30.389Z,95404.91
2023-05-11T16:26:33.177Z,95407.84
2023-05-11T16:31:36.057Z,95405.41
2023-05-11T16:36:38.769Z,95395.13
2023-05-11T16:41:41.518Z,95397.00
2023-05-11T16:46:43.871Z,95393.63
2023-05-11T16:51:46.622Z,95393.91
2023-05-11T16:56:49.017Z,95395.06
2023-05-11T17:01:51.474Z,95386.16
2023-05-11T17:06:53.853Z,95384.91
2023-05-11T17:11:56.390Z,95389.97
2023-05-11T17:16:58.753Z,95388.47
2023-05-11T17:22:01.208Z,95386.59
2023-05-11T17:27:03.531Z,95384.72
2023-05-11T17:32:06.039Z,95376.66
2023-05-11T17:37:14.847Z,95377.50
2023-05-11T17:42:23.930Z,95380.69
2023-05-11T17:47:27.206Z,95381.50
2023-05-11T17:52:30.400Z,95385.00
2023-05-11T17:57:33.959Z,95387.41
2023-05-11T18:02:37.443Z,95381.53
2023-05-11T18:07:40.390Z,95387.50
2023-05-11T18:12:43.513Z,95380.25
2023-05-11T18:17:45.837Z,95384.34
2023-05-11T18:22:57.347Z,95389.72
2023-05-11T18:28:00.210Z,95392.69
2023-05-11T18:33:02.574Z,95388.13
2023-05-11T18:38:05.057Z,95388.69
2023-05-11T18:43:08.203Z,95394.06
2023-05-11T18:48:10.634Z,95389.56
2023-05-11T18:53:13.414Z,95388.19
2023-05-11T18:58:20.403Z,95391.44
2023-05-11T19:03:23.202Z,95392.47
2023-05-11T19:08:26.387Z,95397.03
2023-05-11T19:13:28.742Z,95404.53
2023-05-11T19:18:32.589Z,95410.16
2023-05-11T19:23:35.471Z,95411.22
2023-05-11T19:28:37.847Z,95409.34
2023-05-11T19:33:40.246Z,95408.03
2023-05-11T19:38:42.860Z,95408.03
2023-05-11T19:43:45.212Z,95415.56
2023-05-11T19:48:47.894Z,95411.56
2023-05-11T19:53:50.386Z,95401.41
2023-05-11T19:58:52.772Z,95419.06
2023-05-11T20:03:56.310Z,95409.69
2023-05-11T20:08:58.800Z,95411.31
2023-05-11T20:14:01.325Z,95408.88
2023-05-11T20:19:03.691Z,95406.47
2023-05-11T20:24:06.129Z,95407.28
2023-05-11T20:29:09.658Z,95406.47
2023-05-11T20:34:12.095Z,95403.28
2023-05-11T20:39:14.772Z,95405.97
2023-05-11T20:44:17.489Z,95400.59
2023-05-11T20:49:34.638Z,95405.41
2023-05-11T20:54:40.702Z,95395.19
2023-05-11T21:04:48.402Z,95394.16
2023-05-11T21:09:50.914Z,95386.69
2023-05-11T21:14:55.498Z,95389.88
2023-05-11T21:19:59.482Z,95382.13
2023-05-11T21:25:01.798Z,95379.97
2023-05-11T21:30:04.537Z,95388.81
2023-05-11T21:35:06.917Z,95386.13
2023-05-11T21:40:09.613Z,95389.59
2023-05-11T21:45:13.545Z,95388.81
2023-05-11T21:50:16.493Z,95389.88
2023-05-11T21:55:19.266Z,95390.41
2023-05-11T22:00:22.561Z,95397.91
2023-05-11T22:05:25.014Z,95397.41
2023-05-11T22:10:27.280Z,95396.84
2023-05-11T22:15:30.124Z,95392.00
2023-05-11T22:20:32.468Z,95393.91
2023-05-11T22:25:35.430Z,95398.44
2023-05-11T22:30:38.015Z,95400.31
2023-05-11T22:35:41.055Z,95404.59
2023-05-11T22:40:43.440Z,95407.56
2023-05-11T22:45:46.259Z,95408.34
2023-05-11T22:50:49.049Z,95410.22
2023-05-11T22:55:51.405Z,95413.16
2023-05-11T23:00:56.436Z,95403.25
2023-05-11T23:05:58.912Z,95405.91
2023-05-11T23:11:01.323Z,95406.44
2023-05-11T23:16:04.329Z,95405.41
2023-05-11T23:21:06.657Z,95403.53
2023-05-11T23:26:08.962Z,95395.25
2023-05-11T23:31:11.263Z,95395.19
2023-05-11T23:36:14.851Z,95389.31
2023-05-11T23:41:17.534Z,95385.84
2023-05-11T23:46:19.870Z,95389.31
2023-05-11T23:51:22.965Z,95386.41
2023-05-11T23:56:25.790Z,95382.91
